sensor_id;sensor_type;location;lat;lon;timestamp;P1;durP1;ratioP1;P2;durP2;ratioP2
61473;SDS011;53694;49.784;30.150;2023-04-01T00:00:29;23.58;;;14.00;;
61473;SDS011;53694;49.784;30.150;2023-04-01T00:01:30;24.26;;;13.20;;
61473;SDS011;53694;49.784;30.150;2023-04-01T00:02:32;21.70;;;12.69;;
61473;SDS011;53694;49.784;30.150;2023-04-01T00:03:34;21.16;;;12.44;;
61473;SDS011;53694;49.784;30.150;2023-04-01T00:04:36;21.79;;;12.72;;
61473;SDS011;53694;49.784;30.150;2023-04-01T00:05:37;21.11;;;12.03;;
61473;SDS011;53694;49.784;30.150;2023-04-01T00:06:39;21.29;;;11.63;;
61473;SDS011;53694;49.784;30.150;2023-04-01T00:07:40;20.24;;;11.77;;
61473;SDS011;53694;49.784;30.150;2023-04-01T00:08:42;19.38;;;12.09;;
61473;SDS011;53694;49.784;30.150;2023-04-01T00:09:43;22.19;;;12.01;;
61473;SDS011;53694;49.784;30.150;2023-04-01T00:10:45;19.92;;;11.46;;
61473;SDS011;53694;49.784;30.150;2023-04-01T00:11:47;20.11;;;11.95;;
61473;SDS011;53694;49.784;30.150;2023-04-01T00:12:48;20.27;;;11.25;;
61473;SDS011;53694;49.784;30.150;2023-04-01T00:13:50;21.65;;;11.71;;
61473;SDS011;53694;49.784;30.150;2023-04-01T00:14:51;23.34;;;12.63;;
61473;SDS011;53694;49.784;30.150;2023-04-01T00:15:54;20.18;;;11.16;;
61473;SDS011;53694;49.784;30.150;2023-04-01T00:16:56;20.50;;;11.77;;
61473;SDS011;53694;49.784;30.150;2023-04-01T00:17:57;20.22;;;11.62;;
61473;SDS011;53694;49.784;30.150;2023-04-01T00:19:00;21.06;;;12.03;;
61473;SDS011;53694;49.784;30.150;2023-04-01T00:20:02;21.73;;;11.69;;
61473;SDS011;53694;49.784;30.150;2023-04-01T00:21:05;21.52;;;11.74;;
61473;SDS011;53694;49.784;30.150;2023-04-01T00:22:07;21.45;;;12.05;;
61473;SDS011;53694;49.784;30.150;2023-04-01T00:23:09;20.05;;;10.96;;
61473;SDS011;53694;49.784;30.150;2023-04-01T00:24:10;18.31;;;12.11;;
61473;SDS011;53694;49.784;30.150;2023-04-01T00:25:12;20.11;;;11.58;;
61473;SDS011;53694;49.784;30.150;2023-04-01T00:26:14;20.29;;;12.44;;
61473;SDS011;53694;49.784;30.150;2023-04-01T00:27:16;20.59;;;12.76;;
61473;SDS011;53694;49.784;30.150;2023-04-01T00:28:18;20.99;;;13.20;;
61473;SDS011;53694;49.784;30.150;2023-04-01T00:29:20;21.11;;;13.19;;
61473;SDS011;53694;49.784;30.150;2023-04-01T00:30:22;27.39;;;14.97;;
61473;SDS011;53694;49.784;30.150;2023-04-01T00:31:24;21.58;;;13.16;;
61473;SDS011;53694;49.784;30.150;2023-04-01T00:32:25;24.28;;;13.40;;
61473;SDS011;53694;49.784;30.150;2023-04-01T00:33:27;20.57;;;11.53;;
61473;SDS011;53694;49.784;30.150;2023-04-01T00:34:28;19.82;;;11.35;;
61473;SDS011;53694;49.784;30.150;2023-04-01T00:35:30;22.27;;;12.09;;
61473;SDS011;53694;49.784;30.150;2023-04-01T00:36:31;20.52;;;11.49;;
61473;SDS011;53694;49.784;30.150;2023-04-01T00:37:34;17.90;;;10.91;;
61473;SDS011;53694;49.784;30.150;2023-04-01T00:38:37;19.77;;;11.71;;
61473;SDS011;53694;49.784;30.150;2023-04-01T00:39:39;18.55;;;10.99;;
61473;SDS011;53694;49.784;30.150;2023-04-01T00:40:44;19.91;;;11.49;;
61473;SDS011;53694;49.784;30.150;2023-04-01T00:41:47;19.08;;;10.58;;
61473;SDS011;53694;49.784;30.150;2023-04-01T00:42:49;18.52;;;11.26;;
61473;SDS011;53694;49.784;30.150;2023-04-01T00:43:50;19.51;;;11.23;;
61473;SDS011;53694;49.784;30.150;2023-04-01T00:44:53;23.10;;;12.37;;
61473;SDS011;53694;49.784;30.150;2023-04-01T00:45:55;22.21;;;12.31;;
61473;SDS011;53694;49.784;30.150;2023-04-01T00:46:57;21.61;;;12.95;;
61473;SDS011;53694;49.784;30.150;2023-04-01T00:48:01;20.82;;;12.99;;
61473;SDS011;53694;49.784;30.150;2023-04-01T00:49:04;22.18;;;12.91;;
61473;SDS011;53694;49.784;30.150;2023-04-01T00:50:06;23.87;;;14.43;;
61473;SDS011;53694;49.784;30.150;2023-04-01T00:51:09;26.73;;;16.69;;
61473;SDS011;53694;49.784;30.150;2023-04-01T00:52:15;26.83;;;13.97;;
61473;SDS011;53694;49.784;30.150;2023-04-01T00:53:19;20.80;;;13.14;;
61473;SDS011;53694;49.784;30.150;2023-04-01T00:54:22;22.99;;;13.19;;
61473;SDS011;53694;49.784;30.150;2023-04-01T00:55:26;22.38;;;13.26;;
61473;SDS011;53694;49.784;30.150;2023-04-01T00:56:36;21.78;;;12.66;;
61473;SDS011;53694;49.784;30.150;2023-04-01T00:57:36;20.81;;;13.03;;
61473;SDS011;53694;49.784;30.150;2023-04-01T00:58:41;18.26;;;11.64;;
61473;SDS011;53694;49.784;30.150;2023-04-01T00:59:46;21.06;;;12.62;;
61473;SDS011;53694;49.784;30.150;2023-04-01T01:00:50;19.62;;;11.15;;
61473;SDS011;53694;49.784;30.150;2023-04-01T01:01:53;21.23;;;11.71;;
61473;SDS011;53694;49.784;30.150;2023-04-01T01:02:54;18.91;;;11.27;;
61473;SDS011;53694;49.784;30.150;2023-04-01T01:03:56;17.29;;;11.21;;
61473;SDS011;53694;49.784;30.150;2023-04-01T01:04:58;19.14;;;11.01;;
61473;SDS011;53694;49.784;30.150;2023-04-01T01:11:14;20.02;;;11.25;;
61473;SDS011;53694;49.784;30.150;2023-04-01T01:13:44;19.54;;;11.96;;
61473;SDS011;53694;49.784;30.150;2023-04-01T01:16:31;23.57;;;13.63;;
61473;SDS011;53694;49.784;30.150;2023-04-01T01:17:41;24.63;;;14.34;;
61473;SDS011;53694;49.784;30.150;2023-04-01T01:20:28;18.39;;;11.53;;
61473;SDS011;53694;49.784;30.150;2023-04-01T01:21:52;20.77;;;12.09;;
61473;SDS011;53694;49.784;30.150;2023-04-01T01:23:11;19.06;;;11.40;;
61473;SDS011;53694;49.784;30.150;2023-04-01T01:25:32;19.93;;;11.22;;
61473;SDS011;53694;49.784;30.150;2023-04-01T01:26:42;24.16;;;11.33;;
61473;SDS011;53694;49.784;30.150;2023-04-01T01:27:48;22.24;;;11.76;;
61473;SDS011;53694;49.784;30.150;2023-04-01T01:30:42;21.09;;;10.97;;
61473;SDS011;53694;49.784;30.150;2023-04-01T01:33:25;20.27;;;11.08;;
61473;SDS011;53694;49.784;30.150;2023-04-01T01:34:32;16.64;;;10.63;;
61473;SDS011;53694;49.784;30.150;2023-04-01T01:35:40;20.21;;;11.48;;
61473;SDS011;53694;49.784;30.150;2023-04-01T01:36:48;19.09;;;10.81;;
61473;SDS011;53694;49.784;30.150;2023-04-01T01:37:56;20.36;;;12.37;;
61473;SDS011;53694;49.784;30.150;2023-04-01T01:38:57;22.39;;;12.04;;
61473;SDS011;53694;49.784;30.150;2023-04-01T01:40:00;19.29;;;12.25;;
61473;SDS011;53694;49.784;30.150;2023-04-01T01:41:05;25.36;;;14.36;;
61473;SDS011;53694;49.784;30.150;2023-04-01T01:42:10;23.19;;;13.19;;
61473;SDS011;53694;49.784;30.150;2023-04-01T01:43:15;22.81;;;13.56;;
61473;SDS011;53694;49.784;30.150;2023-04-01T01:44:20;24.03;;;14.61;;
61473;SDS011;53694;49.784;30.150;2023-04-01T01:45:23;21.33;;;12.92;;
61473;SDS011;53694;49.784;30.150;2023-04-01T01:46:27;21.45;;;13.33;;
61473;SDS011;53694;49.784;30.150;2023-04-01T01:47:31;23.02;;;11.95;;
61473;SDS011;53694;49.784;30.150;2023-04-01T01:48:35;19.87;;;11.54;;
61473;SDS011;53694;49.784;30.150;2023-04-01T01:49:37;19.26;;;11.66;;
61473;SDS011;53694;49.784;30.150;2023-04-01T01:50:43;21.22;;;12.19;;
61473;SDS011;53694;49.784;30.150;2023-04-01T01:51:47;20.95;;;12.73;;
61473;SDS011;53694;49.784;30.150;2023-04-01T01:52:48;22.49;;;11.85;;
61473;SDS011;53694;49.784;30.150;2023-04-01T01:53:50;18.26;;;11.14;;
61473;SDS011;53694;49.784;30.150;2023-04-01T01:54:56;19.65;;;11.20;;
61473;SDS011;53694;49.784;30.150;2023-04-01T01:55:56;17.84;;;10.78;;
61473;SDS011;53694;49.784;30.150;2023-04-01T01:57:03;18.53;;;10.83;;
61473;SDS011;53694;49.784;30.150;2023-04-01T01:58:08;18.88;;;11.24;;
61473;SDS011;53694;49.784;30.150;2023-04-01T01:59:17;19.92;;;10.84;;
61473;SDS011;53694;49.784;30.150;2023-04-01T02:00:22;18.47;;;10.69;;
61473;SDS011;53694;49.784;30.150;2023-04-01T02:01:24;18.91;;;11.27;;
61473;SDS011;53694;49.784;30.150;2023-04-01T02:02:28;17.30;;;10.44;;
61473;SDS011;53694;49.784;30.150;2023-04-01T02:03:33;20.00;;;10.94;;
61473;SDS011;53694;49.784;30.150;2023-04-01T02:04:40;17.81;;;10.64;;
61473;SDS011;53694;49.784;30.150;2023-04-01T02:05:44;16.27;;;10.13;;
61473;SDS011;53694;49.784;30.150;2023-04-01T02:06:53;17.33;;;10.78;;
61473;SDS011;53694;49.784;30.150;2023-04-01T02:08:15;18.54;;;10.42;;
61473;SDS011;53694;49.784;30.150;2023-04-01T02:09:19;18.87;;;10.42;;
61473;SDS011;53694;49.784;30.150;2023-04-01T02:10:21;20.39;;;10.87;;
61473;SDS011;53694;49.784;30.150;2023-04-01T02:11:27;18.66;;;10.75;;
61473;SDS011;53694;49.784;30.150;2023-04-01T02:12:31;19.25;;;11.41;;
61473;SDS011;53694;49.784;30.150;2023-04-01T02:13:52;21.31;;;11.88;;
61473;SDS011;53694;49.784;30.150;2023-04-01T02:15:00;20.79;;;12.31;;
61473;SDS011;53694;49.784;30.150;2023-04-01T02:16:02;24.69;;;13.29;;
61473;SDS011;53694;49.784;30.150;2023-04-01T02:17:07;24.29;;;14.86;;
61473;SDS011;53694;49.784;30.150;2023-04-01T02:18:13;24.54;;;15.71;;
61473;SDS011;53694;49.784;30.150;2023-04-01T02:19:17;21.23;;;13.89;;
61473;SDS011;53694;49.784;30.150;2023-04-01T02:20:20;20.28;;;12.45;;
61473;SDS011;53694;49.784;30.150;2023-04-01T02:21:26;21.40;;;12.12;;
61473;SDS011;53694;49.784;30.150;2023-04-01T02:22:31;21.59;;;11.93;;
61473;SDS011;53694;49.784;30.150;2023-04-01T02:23:35;23.58;;;12.68;;
61473;SDS011;53694;49.784;30.150;2023-04-01T02:24:39;20.08;;;11.17;;
61473;SDS011;53694;49.784;30.150;2023-04-01T02:25:43;19.12;;;10.91;;
61473;SDS011;53694;49.784;30.150;2023-04-01T02:26:45;20.56;;;12.28;;
61473;SDS011;53694;49.784;30.150;2023-04-01T02:27:48;20.61;;;11.85;;
61473;SDS011;53694;49.784;30.150;2023-04-01T02:28:50;22.26;;;12.27;;
61473;SDS011;53694;49.784;30.150;2023-04-01T02:29:53;20.60;;;11.44;;
61473;SDS011;53694;49.784;30.150;2023-04-01T02:30:55;22.42;;;11.95;;
61473;SDS011;53694;49.784;30.150;2023-04-01T02:31:59;19.39;;;11.96;;
61473;SDS011;53694;49.784;30.150;2023-04-01T02:33:01;20.64;;;11.45;;
61473;SDS011;53694;49.784;30.150;2023-04-01T02:34:04;21.65;;;12.17;;
61473;SDS011;53694;49.784;30.150;2023-04-01T02:35:11;20.50;;;11.49;;
61473;SDS011;53694;49.784;30.150;2023-04-01T02:36:20;18.85;;;10.99;;
61473;SDS011;53694;49.784;30.150;2023-04-01T02:37:22;19.16;;;11.29;;
61473;SDS011;53694;49.784;30.150;2023-04-01T02:38:24;19.87;;;11.61;;
61473;SDS011;53694;49.784;30.150;2023-04-01T02:39:26;20.35;;;11.33;;
61473;SDS011;53694;49.784;30.150;2023-04-01T02:40:28;21.07;;;11.22;;
61473;SDS011;53694;49.784;30.150;2023-04-01T02:41:30;20.11;;;11.41;;
61473;SDS011;53694;49.784;30.150;2023-04-01T02:42:31;19.01;;;11.18;;
61473;SDS011;53694;49.784;30.150;2023-04-01T02:43:33;19.45;;;11.31;;
61473;SDS011;53694;49.784;30.150;2023-04-01T02:44:35;17.62;;;10.85;;
61473;SDS011;53694;49.784;30.150;2023-04-01T02:45:36;18.77;;;11.44;;
61473;SDS011;53694;49.784;30.150;2023-04-01T02:46:38;20.93;;;12.42;;
61473;SDS011;53694;49.784;30.150;2023-04-01T02:47:40;21.34;;;13.01;;
61473;SDS011;53694;49.784;30.150;2023-04-01T02:48:42;22.66;;;14.14;;
61473;SDS011;53694;49.784;30.150;2023-04-01T02:49:43;19.67;;;12.69;;
61473;SDS011;53694;49.784;30.150;2023-04-01T02:50:45;20.00;;;11.92;;
61473;SDS011;53694;49.784;30.150;2023-04-01T02:51:47;19.71;;;11.81;;
61473;SDS011;53694;49.784;30.150;2023-04-01T02:52:49;19.95;;;11.37;;
61473;SDS011;53694;49.784;30.150;2023-04-01T02:53:50;18.89;;;11.39;;
61473;SDS011;53694;49.784;30.150;2023-04-01T02:54:52;20.27;;;11.69;;
61473;SDS011;53694;49.784;30.150;2023-04-01T02:55:54;20.45;;;10.91;;
61473;SDS011;53694;49.784;30.150;2023-04-01T02:56:56;18.56;;;10.69;;
61473;SDS011;53694;49.784;30.150;2023-04-01T02:57:57;19.20;;;10.69;;
61473;SDS011;53694;49.784;30.150;2023-04-01T02:58:59;20.96;;;11.99;;
61473;SDS011;53694;49.784;30.150;2023-04-01T03:00:01;18.38;;;10.15;;
61473;SDS011;53694;49.784;30.150;2023-04-01T03:01:03;17.64;;;10.37;;
61473;SDS011;53694;49.784;30.150;2023-04-01T03:02:04;17.56;;;10.61;;
61473;SDS011;53694;49.784;30.150;2023-04-01T03:03:06;17.85;;;10.56;;
61473;SDS011;53694;49.784;30.150;2023-04-01T03:04:07;17.39;;;10.24;;
61473;SDS011;53694;49.784;30.150;2023-04-01T03:05:09;18.09;;;10.76;;
61473;SDS011;53694;49.784;30.150;2023-04-01T03:06:12;20.03;;;10.55;;
61473;SDS011;53694;49.784;30.150;2023-04-01T03:07:15;22.02;;;10.45;;
61473;SDS011;53694;49.784;30.150;2023-04-01T03:08:16;20.36;;;11.53;;
61473;SDS011;53694;49.784;30.150;2023-04-01T03:09:18;19.38;;;11.12;;
61473;SDS011;53694;49.784;30.150;2023-04-01T03:10:20;23.38;;;12.69;;
61473;SDS011;53694;49.784;30.150;2023-04-01T03:11:21;21.22;;;12.49;;
61473;SDS011;53694;49.784;30.150;2023-04-01T03:12:23;20.84;;;12.66;;
61473;SDS011;53694;49.784;30.150;2023-04-01T03:13:25;19.84;;;13.07;;
61473;SDS011;53694;49.784;30.150;2023-04-01T03:14:26;21.13;;;13.24;;
61473;SDS011;53694;49.784;30.150;2023-04-01T03:15:28;20.46;;;11.74;;
61473;SDS011;53694;49.784;30.150;2023-04-01T03:16:29;21.16;;;11.23;;
61473;SDS011;53694;49.784;30.150;2023-04-01T03:17:31;16.11;;;10.44;;
61473;SDS011;53694;49.784;30.150;2023-04-01T03:18:32;19.70;;;11.82;;
61473;SDS011;53694;49.784;30.150;2023-04-01T03:19:34;19.24;;;11.01;;
61473;SDS011;53694;49.784;30.150;2023-04-01T03:20:36;19.46;;;10.40;;
61473;SDS011;53694;49.784;30.150;2023-04-01T03:21:37;16.61;;;10.77;;
61473;SDS011;53694;49.784;30.150;2023-04-01T03:22:39;17.76;;;9.29;;
61473;SDS011;53694;49.784;30.150;2023-04-01T03:23:40;15.90;;;9.69;;
61473;SDS011;53694;49.784;30.150;2023-04-01T03:24:42;17.92;;;10.20;;
61473;SDS011;53694;49.784;30.150;2023-04-01T03:25:43;16.49;;;9.54;;
61473;SDS011;53694;49.784;30.150;2023-04-01T03:26:45;20.66;;;9.41;;
61473;SDS011;53694;49.784;30.150;2023-04-01T03:27:47;16.02;;;9.83;;
61473;SDS011;53694;49.784;30.150;2023-04-01T03:28:48;20.28;;;10.14;;
61473;SDS011;53694;49.784;30.150;2023-04-01T03:29:50;18.12;;;10.35;;
61473;SDS011;53694;49.784;30.150;2023-04-01T03:30:51;17.36;;;9.75;;
61473;SDS011;53694;49.784;30.150;2023-04-01T03:31:53;15.34;;;9.98;;
61473;SDS011;53694;49.784;30.150;2023-04-01T03:32:54;16.94;;;9.76;;
61473;SDS011;53694;49.784;30.150;2023-04-01T03:33:56;16.00;;;9.82;;
61473;SDS011;53694;49.784;30.150;2023-04-01T03:34:57;17.68;;;10.14;;
61473;SDS011;53694;49.784;30.150;2023-04-01T03:35:59;17.68;;;9.94;;
61473;SDS011;53694;49.784;30.150;2023-04-01T03:37:03;17.89;;;11.07;;
61473;SDS011;53694;49.784;30.150;2023-04-01T03:38:05;20.82;;;11.52;;
61473;SDS011;53694;49.784;30.150;2023-04-01T03:39:06;22.10;;;12.25;;
61473;SDS011;53694;49.784;30.150;2023-04-01T03:40:08;21.79;;;12.44;;
61473;SDS011;53694;49.784;30.150;2023-04-01T03:41:11;22.23;;;13.98;;
61473;SDS011;53694;49.784;30.150;2023-04-01T03:42:14;24.39;;;14.11;;
61473;SDS011;53694;49.784;30.150;2023-04-01T03:43:16;23.11;;;13.34;;
61473;SDS011;53694;49.784;30.150;2023-04-01T03:44:17;19.20;;;12.08;;
61473;SDS011;53694;49.784;30.150;2023-04-01T03:45:19;18.48;;;10.84;;
61473;SDS011;53694;49.784;30.150;2023-04-01T03:46:21;17.62;;;10.60;;
61473;SDS011;53694;49.784;30.150;2023-04-01T03:47:23;18.07;;;10.59;;
61473;SDS011;53694;49.784;30.150;2023-04-01T03:48:25;17.62;;;10.91;;
61473;SDS011;53694;49.784;30.150;2023-04-01T03:49:26;17.25;;;10.21;;
61473;SDS011;53694;49.784;30.150;2023-04-01T03:50:28;17.87;;;9.94;;
61473;SDS011;53694;49.784;30.150;2023-04-01T03:51:29;16.88;;;9.57;;
61473;SDS011;53694;49.784;30.150;2023-04-01T03:52:31;15.56;;;9.31;;
61473;SDS011;53694;49.784;30.150;2023-04-01T03:53:33;16.49;;;9.41;;
61473;SDS011;53694;49.784;30.150;2023-04-01T03:54:34;16.42;;;9.11;;
61473;SDS011;53694;49.784;30.150;2023-04-01T03:55:40;14.97;;;8.54;;
61473;SDS011;53694;49.784;30.150;2023-04-01T03:56:40;15.31;;;9.61;;
61473;SDS011;53694;49.784;30.150;2023-04-01T03:57:41;17.20;;;9.71;;
61473;SDS011;53694;49.784;30.150;2023-04-01T03:58:43;15.58;;;9.52;;
61473;SDS011;53694;49.784;30.150;2023-04-01T03:59:45;17.59;;;9.94;;
61473;SDS011;53694;49.784;30.150;2023-04-01T04:00:46;17.64;;;10.41;;
61473;SDS011;53694;49.784;30.150;2023-04-01T04:01:48;15.96;;;9.56;;
61473;SDS011;53694;49.784;30.150;2023-04-01T04:02:49;16.61;;;9.97;;
61473;SDS011;53694;49.784;30.150;2023-04-01T04:03:51;22.04;;;11.15;;
61473;SDS011;53694;49.784;30.150;2023-04-01T04:04:52;18.40;;;10.79;;
61473;SDS011;53694;49.784;30.150;2023-04-01T04:05:54;22.59;;;12.75;;
61473;SDS011;53694;49.784;30.150;2023-04-01T04:06:55;21.28;;;12.43;;
61473;SDS011;53694;49.784;30.150;2023-04-01T04:07:57;23.34;;;12.94;;
61473;SDS011;53694;49.784;30.150;2023-04-01T04:08:58;19.82;;;11.93;;
61473;SDS011;53694;49.784;30.150;2023-04-01T04:10:00;18.65;;;10.99;;
61473;SDS011;53694;49.784;30.150;2023-04-01T04:11:02;16.59;;;10.63;;
61473;SDS011;53694;49.784;30.150;2023-04-01T04:12:03;18.91;;;11.12;;
61473;SDS011;53694;49.784;30.150;2023-04-01T04:13:05;18.27;;;9.89;;
61473;SDS011;53694;49.784;30.150;2023-04-01T04:14:07;13.94;;;9.19;;
61473;SDS011;53694;49.784;30.150;2023-04-01T04:15:08;15.33;;;9.27;;
61473;SDS011;53694;49.784;30.150;2023-04-01T04:16:10;16.03;;;9.48;;
61473;SDS011;53694;49.784;30.150;2023-04-01T04:17:12;15.75;;;9.11;;
61473;SDS011;53694;49.784;30.150;2023-04-01T04:18:14;17.00;;;9.54;;
61473;SDS011;53694;49.784;30.150;2023-04-01T04:19:15;16.32;;;9.17;;
61473;SDS011;53694;49.784;30.150;2023-04-01T04:20:17;17.32;;;9.91;;
61473;SDS011;53694;49.784;30.150;2023-04-01T04:21:18;16.56;;;9.13;;
61473;SDS011;53694;49.784;30.150;2023-04-01T04:22:20;14.77;;;9.80;;
61473;SDS011;53694;49.784;30.150;2023-04-01T04:23:22;14.91;;;9.25;;
61473;SDS011;53694;49.784;30.150;2023-04-01T04:24:24;15.48;;;9.45;;
61473;SDS011;53694;49.784;30.150;2023-04-01T04:25:26;14.75;;;9.09;;
61473;SDS011;53694;49.784;30.150;2023-04-01T04:26:27;15.14;;;9.57;;
61473;SDS011;53694;49.784;30.150;2023-04-01T04:27:29;14.50;;;8.76;;
61473;SDS011;53694;49.784;30.150;2023-04-01T04:28:30;15.71;;;9.06;;
61473;SDS011;53694;49.784;30.150;2023-04-01T04:29:33;14.25;;;8.97;;
61473;SDS011;53694;49.784;30.150;2023-04-01T04:30:34;15.51;;;9.07;;
61473;SDS011;53694;49.784;30.150;2023-04-01T04:31:36;16.45;;;9.60;;
61473;SDS011;53694;49.784;30.150;2023-04-01T04:32:37;16.56;;;10.08;;
61473;SDS011;53694;49.784;30.150;2023-04-01T04:33:39;18.20;;;10.40;;
61473;SDS011;53694;49.784;30.150;2023-04-01T04:34:40;14.47;;;9.17;;
61473;SDS011;53694;49.784;30.150;2023-04-01T04:35:42;16.20;;;9.54;;
61473;SDS011;53694;49.784;30.150;2023-04-01T04:36:43;14.73;;;8.92;;
61473;SDS011;53694;49.784;30.150;2023-04-01T04:37:45;15.54;;;9.29;;
61473;SDS011;53694;49.784;30.150;2023-04-01T04:38:47;17.06;;;9.76;;
61473;SDS011;53694;49.784;30.150;2023-04-01T04:39:49;14.75;;;9.05;;
61473;SDS011;53694;49.784;30.150;2023-04-01T04:40:50;16.52;;;9.56;;
61473;SDS011;53694;49.784;30.150;2023-04-01T04:41:52;17.05;;;10.11;;
61473;SDS011;53694;49.784;30.150;2023-04-01T04:42:53;18.71;;;10.13;;
61473;SDS011;53694;49.784;30.150;2023-04-01T04:43:55;17.54;;;10.03;;
61473;SDS011;53694;49.784;30.150;2023-04-01T04:44:57;19.61;;;10.52;;
61473;SDS011;53694;49.784;30.150;2023-04-01T04:46:32;16.03;;;9.64;;
61473;SDS011;53694;49.784;30.150;2023-04-01T04:47:11;20.92;;;10.93;;
61473;SDS011;53694;49.784;30.150;2023-04-01T04:48:13;18.79;;;10.41;;
61473;SDS011;53694;49.784;30.150;2023-04-01T04:49:16;14.73;;;8.74;;
61473;SDS011;53694;49.784;30.150;2023-04-01T04:50:18;16.46;;;10.01;;
61473;SDS011;53694;49.784;30.150;2023-04-01T04:51:20;16.19;;;10.59;;
61473;SDS011;53694;49.784;30.150;2023-04-01T04:52:22;18.87;;;11.09;;
61473;SDS011;53694;49.784;30.150;2023-04-01T04:53:23;18.89;;;11.02;;
61473;SDS011;53694;49.784;30.150;2023-04-01T04:54:25;17.21;;;11.36;;
61473;SDS011;53694;49.784;30.150;2023-04-01T04:55:26;15.81;;;9.51;;
61473;SDS011;53694;49.784;30.150;2023-04-01T04:56:28;14.94;;;9.44;;
61473;SDS011;53694;49.784;30.150;2023-04-01T04:57:30;14.72;;;9.62;;
61473;SDS011;53694;49.784;30.150;2023-04-01T04:58:31;15.76;;;9.33;;
61473;SDS011;53694;49.784;30.150;2023-04-01T04:59:33;17.00;;;9.26;;
61473;SDS011;53694;49.784;30.150;2023-04-01T05:00:34;14.30;;;8.76;;
61473;SDS011;53694;49.784;30.150;2023-04-01T05:01:36;14.88;;;9.03;;
61473;SDS011;53694;49.784;30.150;2023-04-01T05:02:37;16.04;;;9.27;;
61473;SDS011;53694;49.784;30.150;2023-04-01T05:03:39;14.91;;;8.91;;
61473;SDS011;53694;49.784;30.150;2023-04-01T05:04:41;15.37;;;9.72;;
61473;SDS011;53694;49.784;30.150;2023-04-01T05:05:48;17.66;;;8.89;;
61473;SDS011;53694;49.784;30.150;2023-04-01T05:06:52;14.98;;;9.39;;
61473;SDS011;53694;49.784;30.150;2023-04-01T05:07:54;16.03;;;9.59;;
61473;SDS011;53694;49.784;30.150;2023-04-01T05:08:55;16.32;;;9.29;;
61473;SDS011;53694;49.784;30.150;2023-04-01T05:09:57;17.80;;;10.44;;
61473;SDS011;53694;49.784;30.150;2023-04-01T05:10:58;16.65;;;9.66;;
61473;SDS011;53694;49.784;30.150;2023-04-01T05:12:00;15.67;;;9.34;;
61473;SDS011;53694;49.784;30.150;2023-04-01T05:13:02;17.89;;;9.71;;
61473;SDS011;53694;49.784;30.150;2023-04-01T05:14:03;18.03;;;9.85;;
61473;SDS011;53694;49.784;30.150;2023-04-01T05:15:05;19.60;;;11.29;;
61473;SDS011;53694;49.784;30.150;2023-04-01T05:16:12;21.14;;;11.31;;
61473;SDS011;53694;49.784;30.150;2023-04-01T05:17:15;20.34;;;12.16;;
61473;SDS011;53694;49.784;30.150;2023-04-01T05:18:23;20.56;;;12.06;;
61473;SDS011;53694;49.784;30.150;2023-04-01T05:19:25;24.31;;;13.23;;
61473;SDS011;53694;49.784;30.150;2023-04-01T05:20:26;23.38;;;12.75;;
61473;SDS011;53694;49.784;30.150;2023-04-01T05:21:28;24.41;;;12.12;;
61473;SDS011;53694;49.784;30.150;2023-04-01T05:22:29;21.93;;;11.74;;
61473;SDS011;53694;49.784;30.150;2023-04-01T05:23:31;24.13;;;11.59;;
61473;SDS011;53694;49.784;30.150;2023-04-01T05:24:33;22.47;;;11.78;;
61473;SDS011;53694;49.784;30.150;2023-04-01T05:25:37;22.61;;;11.41;;
61473;SDS011;53694;49.784;30.150;2023-04-01T05:26:39;26.67;;;12.76;;
61473;SDS011;53694;49.784;30.150;2023-04-01T05:27:40;22.17;;;11.33;;
61473;SDS011;53694;49.784;30.150;2023-04-01T05:28:42;24.58;;;12.06;;
61473;SDS011;53694;49.784;30.150;2023-04-01T05:29:43;21.86;;;12.04;;
61473;SDS011;53694;49.784;30.150;2023-04-01T05:30:45;20.61;;;11.05;;
61473;SDS011;53694;49.784;30.150;2023-04-01T05:31:47;26.06;;;12.47;;
61473;SDS011;53694;49.784;30.150;2023-04-01T05:32:48;27.56;;;13.16;;
61473;SDS011;53694;49.784;30.150;2023-04-01T05:33:50;22.68;;;12.04;;
61473;SDS011;53694;49.784;30.150;2023-04-01T05:34:51;24.10;;;12.19;;
61473;SDS011;53694;49.784;30.150;2023-04-01T05:35:54;23.80;;;12.75;;
61473;SDS011;53694;49.784;30.150;2023-04-01T05:36:56;27.57;;;12.49;;
61473;SDS011;53694;49.784;30.150;2023-04-01T05:37:57;24.50;;;12.33;;
61473;SDS011;53694;49.784;30.150;2023-04-01T05:38:59;27.94;;;13.34;;
61473;SDS011;53694;49.784;30.150;2023-04-01T05:40:01;28.67;;;13.61;;
61473;SDS011;53694;49.784;30.150;2023-04-01T05:41:02;28.24;;;13.35;;
61473;SDS011;53694;49.784;30.150;2023-04-01T05:42:07;29.09;;;13.83;;
61473;SDS011;53694;49.784;30.150;2023-04-01T05:43:09;30.64;;;14.24;;
61473;SDS011;53694;49.784;30.150;2023-04-01T05:44:11;34.01;;;15.56;;
61473;SDS011;53694;49.784;30.150;2023-04-01T05:45:13;31.31;;;14.74;;
61473;SDS011;53694;49.784;30.150;2023-04-01T05:46:15;32.21;;;16.12;;
61473;SDS011;53694;49.784;30.150;2023-04-01T05:47:16;33.02;;;16.63;;
61473;SDS011;53694;49.784;30.150;2023-04-01T05:48:18;39.55;;;17.01;;
61473;SDS011;53694;49.784;30.150;2023-04-01T05:49:19;35.13;;;17.38;;
61473;SDS011;53694;49.784;30.150;2023-04-01T05:50:21;37.37;;;19.07;;
61473;SDS011;53694;49.784;30.150;2023-04-01T05:51:23;39.79;;;18.00;;
61473;SDS011;53694;49.784;30.150;2023-04-01T05:52:24;40.93;;;18.73;;
61473;SDS011;53694;49.784;30.150;2023-04-01T05:53:26;40.04;;;17.59;;
61473;SDS011;53694;49.784;30.150;2023-04-01T05:54:27;38.36;;;17.74;;
61473;SDS011;53694;49.784;30.150;2023-04-01T05:55:29;39.77;;;19.36;;
61473;SDS011;53694;49.784;30.150;2023-04-01T05:56:30;41.71;;;17.61;;
61473;SDS011;53694;49.784;30.150;2023-04-01T05:57:32;41.85;;;18.54;;
61473;SDS011;53694;49.784;30.150;2023-04-01T05:58:34;39.45;;;18.27;;
61473;SDS011;53694;49.784;30.150;2023-04-01T05:59:35;52.91;;;27.93;;
61473;SDS011;53694;49.784;30.150;2023-04-01T06:00:37;41.13;;;20.49;;
61473;SDS011;53694;49.784;30.150;2023-04-01T06:01:38;40.38;;;18.60;;
61473;SDS011;53694;49.784;30.150;2023-04-01T06:02:40;39.51;;;18.77;;
61473;SDS011;53694;49.784;30.150;2023-04-01T06:03:42;41.71;;;20.38;;
61473;SDS011;53694;49.784;30.150;2023-04-01T06:04:43;42.66;;;22.46;;
61473;SDS011;53694;49.784;30.150;2023-04-01T06:05:46;41.13;;;20.48;;
61473;SDS011;53694;49.784;30.150;2023-04-01T06:06:49;37.18;;;18.25;;
61473;SDS011;53694;49.784;30.150;2023-04-01T06:07:51;40.04;;;19.16;;
61473;SDS011;53694;49.784;30.150;2023-04-01T06:08:56;35.29;;;17.83;;
61473;SDS011;53694;49.784;30.150;2023-04-01T06:10:00;35.63;;;17.48;;
61473;SDS011;53694;49.784;30.150;2023-04-01T06:12:34;38.12;;;17.03;;
61473;SDS011;53694;49.784;30.150;2023-04-01T06:15:18;41.69;;;17.87;;
61473;SDS011;53694;49.784;30.150;2023-04-01T06:17:44;40.36;;;17.74;;
61473;SDS011;53694;49.784;30.150;2023-04-01T06:26:37;46.40;;;21.60;;
61473;SDS011;53694;49.784;30.150;2023-04-01T06:31:03;60.74;;;29.89;;
61473;SDS011;53694;49.784;30.150;2023-04-01T06:35:00;31.79;;;15.81;;
61473;SDS011;53694;49.784;30.150;2023-04-01T06:37:21;32.52;;;15.78;;